Archival Weather

Heathrow

London, United Kingdom (EGLL)

Report from: Friday, September 23, 2022 2:50 AM BST
Current time: Sunday, July 14, 2024 1:48 AM BST

Current weather – Weather history – Daily summaries
Weather forecast

Temperature14.0°C (57.2°F)
Dew point13.0°C (55.4°F)
Winds 6 kts (3.1 m/s, 6.9 mph) Southwest (220°)
Visibility6.2 mi. (10 km)
Clouds Few clouds 1,300 ft. (396 m)
Altimeter29.97 in.Hg (1015 mB)
Relative humidity94 %
Density altitude31 ft. (9 m)
Remarks Fully automated report
Flight conditions Visual Meteorological Conditions
Raw dataEGLL 230150Z AUTO 22006KT 9999 FEW013 14/13 Q1015
An error has occurred. This application may no longer respond until reloaded. Reload 🗙